Time,TemperatureF,DewpointF,PressureIn,WindDirection,WindDirectionDegrees,WindSpeedMPH,WindSpeedGustMPH,Humidity,HourlyPrecipIn,Conditions,Clouds,dailyrainin,SoftwareType,DateUTC
2013-07-08 00:01:00,71.4,48.9,30.06,SSW,202,0.0,4.0,45,0.00,,,0.00,meteohub,2013-07-08 04:01:00,
2013-07-08 00:02:00,71.4,48.9,30.06,SSW,202,0.0,4.0,45,0.00,,,0.00,meteohub,2013-07-08 04:02:00,
2013-07-08 00:07:00,71.2,49.5,30.06,WSW,248,0.0,3.0,46,0.00,,,0.00,meteohub,2013-07-08 04:07:00,
2013-07-08 00:13:00,71.2,50.0,30.06,WSW,248,3.0,3.0,47,0.00,,,0.00,meteohub,2013-07-08 04:13:00,
2013-07-08 00:18:00,71.1,49.3,30.06,SSW,202,0.0,3.0,46,0.00,,,0.00,meteohub,2013-07-08 04:18:00,
2013-07-08 00:23:00,70.9,50.2,30.06,SSW,202,0.0,3.0,48,0.00,,,0.00,meteohub,2013-07-08 04:23:00,
2013-07-08 00:28:00,70.9,50.7,30.06,SW,225,3.0,3.0,49,0.00,,,0.00,meteohub,2013-07-08 04:28:00,
2013-07-08 00:33:00,70.9,50.7,30.06,SSW,202,1.0,3.0,49,0.00,,,0.00,meteohub,2013-07-08 04:33:00,
2013-07-08 00:38:00,70.9,52.3,30.06,SW,225,2.0,4.0,52,0.00,,,0.00,meteohub,2013-07-08 04:38:00,
2013-07-08 00:43:00,70.9,51.8,30.06,SSW,202,2.0,4.0,51,0.00,,,0.00,meteohub,2013-07-08 04:43:00,
2013-07-08 00:48:00,70.9,52.9,30.06,WSW,248,3.0,4.0,53,0.00,,,0.00,meteohub,2013-07-08 04:48:00,
2013-07-08 00:53:00,70.7,52.2,30.06,SSW,202,0.0,4.0,52,0.00,,,0.00,meteohub,2013-07-08 04:53:00,
2013-07-08 00:58:00,70.7,52.2,30.06,SSW,202,0.0,4.0,52,0.00,,,0.00,meteohub,2013-07-08 04:58:00,
2013-07-08 01:03:00,70.7,52.2,30.06,South,180,0.0,4.0,52,0.00,,,0.00,meteohub,2013-07-08 05:03:00,
2013-07-08 01:09:00,70.5,52.0,30.06,South,180,0.0,2.0,52,0.00,,,0.00,meteohub,2013-07-08 05:09:00,
2013-07-08 01:14:00,70.3,51.4,30.06,SSE,158,0.0,1.0,51,0.00,,,0.00,meteohub,2013-07-08 05:14:00,
2013-07-08 01:19:00,70.3,52.0,30.06,SSW,202,0.0,1.0,52,0.00,,,0.00,meteohub,2013-07-08 05:19:00,
2013-07-08 01:24:00,70.3,52.9,30.06,SW,225,2.0,0.0,54,0.00,,,0.00,meteohub,2013-07-08 05:24:00,
2013-07-08 01:29:00,70.3,54.0,30.06,SSW,202,2.0,3.0,56,0.00,,,0.00,meteohub,2013-07-08 05:29:00,
2013-07-08 01:34:00,70.3,54.3,30.06,SSW,202,0.0,3.0,57,0.00,,,0.00,meteohub,2013-07-08 05:34:00,
2013-07-08 01:39:00,70.2,53.8,30.06,SSW,202,0.0,4.0,56,0.00,,,0.00,meteohub,2013-07-08 05:39:00,
2013-07-08 01:44:00,70.3,54.3,30.06,SSW,202,0.0,4.0,57,0.00,,,0.00,meteohub,2013-07-08 05:44:00,
2013-07-08 01:49:00,70.2,55.2,30.06,WSW,248,3.0,3.0,59,0.00,,,0.00,meteohub,2013-07-08 05:49:00,
2013-07-08 01:54:00,70.2,55.6,30.06,South,180,0.0,4.0,60,0.00,,,0.00,meteohub,2013-07-08 05:54:00,
2013-07-08 01:59:00,70.0,55.9,30.06,SSW,202,2.0,4.0,61,0.00,,,0.00,meteohub,2013-07-08 05:59:00,
2013-07-08 02:04:00,70.0,55.9,30.06,SSW,202,0.0,4.0,61,0.00,,,0.00,meteohub,2013-07-08 06:04:00,
2013-07-08 02:09:00,70.0,55.4,30.06,SSW,202,2.0,3.0,60,0.00,,,0.00,meteohub,2013-07-08 06:09:00,
2013-07-08 02:15:00,70.0,56.3,30.06,South,180,0.0,3.0,62,0.00,,,0.00,meteohub,2013-07-08 06:15:00,
2013-07-08 02:20:00,69.8,54.9,30.06,SSW,202,3.0,3.0,59,0.00,,,0.00,meteohub,2013-07-08 06:20:00,
2013-07-08 02:25:00,70.0,55.4,30.06,SSW,202,3.0,3.0,60,0.00,,,0.00,meteohub,2013-07-08 06:25:00,
2013-07-08 02:30:00,70.0,54.5,30.06,SSW,202,0.0,4.0,58,0.00,,,0.00,meteohub,2013-07-08 06:30:00,
2013-07-08 02:35:00,70.0,54.1,30.06,SSW,202,2.0,4.0,57,0.00,,,0.00,meteohub,2013-07-08 06:35:00,
2013-07-08 02:40:00,70.0,53.6,30.06,South,180,0.0,4.0,56,0.00,,,0.00,meteohub,2013-07-08 06:40:00,
2013-07-08 02:45:00,70.0,54.1,30.06,South,180,0.0,3.0,57,0.00,,,0.00,meteohub,2013-07-08 06:45:00,
2013-07-08 02:50:00,70.0,53.6,30.06,South,180,0.0,3.0,56,0.00,,,0.00,meteohub,2013-07-08 06:50:00,
2013-07-08 02:55:00,70.0,54.1,30.03,SSW,202,0.0,3.0,57,0.00,,,0.00,meteohub,2013-07-08 06:55:00,
2013-07-08 03:00:00,70.0,53.6,30.03,SW,225,2.0,2.0,56,0.00,,,0.00,meteohub,2013-07-08 07:00:00,
2013-07-08 03:05:00,70.0,53.1,30.03,SW,225,0.0,3.0,55,0.00,,,0.00,meteohub,2013-07-08 07:05:00,
2013-07-08 03:10:00,69.8,52.3,30.06,SW,225,0.0,3.0,54,0.00,,,0.00,meteohub,2013-07-08 07:10:00,
2013-07-08 03:15:00,69.8,52.9,30.06,SSE,158,0.0,3.0,55,0.00,,,0.00,meteohub,2013-07-08 07:15:00,
2013-07-08 03:21:00,69.8,52.3,30.06,SSE,158,0.0,2.0,54,0.00,,,0.00,meteohub,2013-07-08 07:21:00,
2013-07-08 03:26:00,69.8,52.3,30.06,SSE,158,0.0,2.0,54,0.00,,,0.00,meteohub,2013-07-08 07:26:00,
2013-07-08 03:31:00,70.0,53.1,30.06,SSW,202,0.0,0.0,55,0.00,,,0.00,meteohub,2013-07-08 07:31:00,
2013-07-08 03:36:00,70.0,55.0,30.06,SW,225,0.0,0.0,59,0.00,,,0.00,meteohub,2013-07-08 07:36:00,
2013-07-08 03:41:00,70.0,55.0,30.06,SW,225,0.0,0.0,59,0.00,,,0.00,meteohub,2013-07-08 07:41:00,
2013-07-08 03:46:00,70.0,55.0,30.06,SSE,158,0.0,0.0,59,0.00,,,0.00,meteohub,2013-07-08 07:46:00,
2013-07-08 03:51:00,70.0,54.5,30.06,SSW,202,0.0,0.0,58,0.00,,,0.00,meteohub,2013-07-08 07:51:00,
2013-07-08 03:56:00,70.0,54.5,30.06,East,90,0.0,0.0,58,0.00,,,0.00,meteohub,2013-07-08 07:56:00,
2013-07-08 04:01:00,69.8,54.0,30.06,South,180,0.0,0.0,57,0.00,,,0.00,meteohub,2013-07-08 08:01:00,
2013-07-08 04:06:00,69.8,54.0,30.06,South,180,0.0,0.0,57,0.00,,,0.00,meteohub,2013-07-08 08:06:00,
2013-07-08 04:11:00,69.8,54.0,30.06,South,180,0.0,0.0,57,0.00,,,0.00,meteohub,2013-07-08 08:11:00,
2013-07-08 04:16:00,69.8,54.3,30.06,SSE,158,0.0,0.0,58,0.00,,,0.00,meteohub,2013-07-08 08:16:00,
2013-07-08 04:22:00,69.8,54.9,30.06,SSW,202,0.0,0.0,59,0.00,,,0.00,meteohub,2013-07-08 08:22:00,
2013-07-08 04:27:00,69.8,55.8,30.06,SSE,158,0.0,0.0,61,0.00,,,0.00,meteohub,2013-07-08 08:27:00,
2013-07-08 04:32:00,69.6,55.0,30.06,SSE,158,0.0,0.0,60,0.00,,,0.00,meteohub,2013-07-08 08:32:00,
2013-07-08 04:37:00,69.6,54.7,30.06,SSE,158,0.0,0.0,59,0.00,,,0.00,meteohub,2013-07-08 08:37:00,
2013-07-08 04:42:00,69.6,54.7,30.06,SSE,158,0.0,0.0,59,0.00,,,0.00,meteohub,2013-07-08 08:42:00,
2013-07-08 04:47:00,69.8,56.7,30.06,SW,225,0.0,0.0,63,0.00,,,0.00,meteohub,2013-07-08 08:47:00,
2013-07-08 04:52:00,70.0,58.5,30.06,SW,225,0.0,1.0,67,0.00,,,0.00,meteohub,2013-07-08 08:52:00,
2013-07-08 04:57:00,70.0,58.5,30.06,SSW,202,0.0,1.0,67,0.00,,,0.00,meteohub,2013-07-08 08:57:00,
2013-07-08 05:02:00,70.0,57.7,30.06,SSE,158,0.0,1.0,65,0.00,,,0.00,meteohub,2013-07-08 09:02:00,
2013-07-08 05:07:00,70.0,57.2,30.06,NNE,22,0.0,0.0,64,0.00,,,0.00,meteohub,2013-07-08 09:07:00,
2013-07-08 05:12:00,69.8,56.7,30.06,ENE,68,0.0,0.0,63,0.00,,,0.00,meteohub,2013-07-08 09:12:00,
2013-07-08 05:17:00,69.8,56.7,30.06,ENE,68,0.0,0.0,63,0.00,,,0.00,meteohub,2013-07-08 09:17:00,
2013-07-08 05:22:00,69.8,57.6,30.06,SSE,158,0.0,0.0,65,0.00,,,0.00,meteohub,2013-07-08 09:22:00,
2013-07-08 05:27:00,69.6,56.8,30.06,SSE,158,0.0,0.0,64,0.00,,,0.00,meteohub,2013-07-08 09:27:00,
2013-07-08 05:32:00,69.4,56.3,30.06,SSE,158,0.0,0.0,63,0.00,,,0.00,meteohub,2013-07-08 09:32:00,
2013-07-08 05:37:00,69.4,56.3,30.06,SSE,158,0.0,0.0,63,0.00,,,0.00,meteohub,2013-07-08 09:37:00,
2013-07-08 05:42:00,69.3,56.5,30.06,SSE,158,0.0,0.0,64,0.00,,,0.00,meteohub,2013-07-08 09:42:00,
2013-07-08 05:47:00,69.3,57.0,30.06,SSE,158,0.0,0.0,65,0.00,,,0.00,meteohub,2013-07-08 09:47:00,
2013-07-08 05:52:00,69.1,57.7,30.03,SSE,158,0.0,0.0,67,0.00,,,0.00,meteohub,2013-07-08 09:52:00,
2013-07-08 05:57:00,68.9,57.9,30.03,SSE,158,0.0,0.0,68,0.00,,,0.00,meteohub,2013-07-08 09:57:00,
2013-07-08 06:02:00,68.9,57.9,30.03,SSE,158,0.0,0.0,68,0.00,,,0.00,meteohub,2013-07-08 10:02:00,
2013-07-08 06:07:00,68.9,57.9,30.06,SSE,158,0.0,0.0,68,0.00,,,0.00,meteohub,2013-07-08 10:07:00,
2013-07-08 06:12:00,68.9,57.9,30.06,SSE,158,0.0,0.0,68,0.00,,,0.00,meteohub,2013-07-08 10:12:00,
2013-07-08 06:17:00,68.9,57.9,30.06,SSE,158,0.0,0.0,68,0.00,,,0.00,meteohub,2013-07-08 10:17:00,
2013-07-08 06:22:00,68.9,57.9,30.06,SSE,158,0.0,0.0,68,0.00,,,0.00,meteohub,2013-07-08 10:22:00,
2013-07-08 06:27:00,68.9,57.9,30.06,SSE,158,0.0,0.0,68,0.00,,,0.00,meteohub,2013-07-08 10:27:00,
2013-07-08 06:32:00,69.1,58.5,30.06,SSE,158,0.0,0.0,69,0.00,,,0.00,meteohub,2013-07-08 10:32:00,
2013-07-08 06:37:00,69.3,59.0,30.06,SSE,158,0.0,0.0,70,0.00,,,0.00,meteohub,2013-07-08 10:37:00,
2013-07-08 06:42:00,69.4,59.2,30.06,SSE,158,0.0,0.0,70,0.00,,,0.00,meteohub,2013-07-08 10:42:00,
2013-07-08 06:47:00,69.6,59.4,30.06,SSE,158,0.0,0.0,70,0.00,,,0.00,meteohub,2013-07-08 10:47:00,
2013-07-08 06:52:00,69.8,59.9,30.06,NNW,338,2.0,0.0,71,0.00,,,0.00,meteohub,2013-07-08 10:52:00,
2013-07-08 06:57:00,70.2,61.9,30.09,WNW,292,6.0,6.0,75,0.00,,,0.00,meteohub,2013-07-08 10:57:00,
2013-07-08 07:02:00,70.5,63.0,30.09,NNW,338,7.0,7.0,77,0.00,,,0.00,meteohub,2013-07-08 11:02:00,
2013-07-08 07:07:00,70.9,62.6,30.09,WNW,292,3.0,10.0,75,0.00,,,0.00,meteohub,2013-07-08 11:07:00,
2013-07-08 07:12:00,71.4,63.5,30.09,WNW,292,7.0,10.0,76,0.00,,,0.00,meteohub,2013-07-08 11:12:00,
2013-07-08 07:17:00,71.6,62.4,30.09,West,270,6.0,9.0,73,0.00,,,0.00,meteohub,2013-07-08 11:17:00,
2013-07-08 07:22:00,71.6,63.0,30.06,WSW,248,6.0,11.0,74,0.00,,,0.00,meteohub,2013-07-08 11:22:00,
2013-07-08 07:27:00,71.4,61.2,30.06,WSW,248,10.0,11.0,70,0.00,,,0.00,meteohub,2013-07-08 11:27:00,
2013-07-08 07:32:00,70.7,51.6,30.06,SW,225,5.0,14.0,51,0.00,,,0.00,meteohub,2013-07-08 11:32:00,
2013-07-08 07:37:00,70.5,51.1,30.06,SSE,158,1.0,14.0,50,0.00,,,0.00,meteohub,2013-07-08 11:37:00,
2013-07-08 07:42:00,70.3,51.4,30.06,ESE,112,0.0,14.0,51,0.00,,,0.00,meteohub,2013-07-08 11:42:00,
2013-07-08 07:47:00,70.0,51.6,30.06,ESE,112,0.0,9.0,52,0.00,,,0.00,meteohub,2013-07-08 11:47:00,
2013-07-08 07:52:00,69.6,52.3,30.03,ESE,112,0.0,5.0,54,0.00,,,0.00,meteohub,2013-07-08 11:52:00,
2013-07-08 07:57:00,69.4,52.5,30.03,ESE,112,0.0,0.0,55,0.00,,,0.00,meteohub,2013-07-08 11:57:00,
2013-07-08 08:02:00,69.8,58.3,30.03,SW,225,2.0,0.0,67,0.00,,,0.00,meteohub,2013-07-08 12:02:00,
2013-07-08 08:07:00,69.8,59.2,30.03,WSW,248,0.0,3.0,69,0.00,,,0.00,meteohub,2013-07-08 12:07:00,
2013-07-08 08:12:00,70.2,60.3,30.03,WSW,248,1.0,4.0,71,0.00,,,0.00,meteohub,2013-07-08 12:12:00,
2013-07-08 08:17:00,70.3,60.4,30.03,SW,225,0.0,4.0,71,0.00,,,0.00,meteohub,2013-07-08 12:17:00,
2013-07-08 08:22:00,70.5,60.6,30.06,SSE,158,0.0,4.0,71,0.00,,,0.00,meteohub,2013-07-08 12:22:00,
2013-07-08 08:27:00,70.9,61.0,30.06,SSE,158,0.0,3.0,71,0.00,,,0.00,meteohub,2013-07-08 12:27:00,
2013-07-08 08:32:00,71.1,60.8,30.06,WNW,292,0.0,0.0,70,0.00,,,0.00,meteohub,2013-07-08 12:32:00,
2013-07-08 08:37:00,71.2,61.0,30.06,WSW,248,0.0,3.0,70,0.00,,,0.00,meteohub,2013-07-08 12:37:00,
2013-07-08 08:42:00,71.4,61.2,30.06,SW,225,0.0,3.0,70,0.00,,,0.00,meteohub,2013-07-08 12:42:00,
2013-07-08 08:47:00,71.6,61.3,30.06,SW,225,0.0,3.0,70,0.00,,,0.00,meteohub,2013-07-08 12:47:00,
2013-07-08 08:52:00,71.8,61.9,30.06,SSW,202,0.0,3.0,71,0.00,,,0.00,meteohub,2013-07-08 12:52:00,
2013-07-08 08:57:00,72.1,62.2,30.03,SSW,202,0.0,0.0,71,0.00,,,0.00,meteohub,2013-07-08 12:57:00,
2013-07-08 09:02:00,72.3,62.4,30.03,WSW,248,0.0,0.0,71,0.00,,,0.00,meteohub,2013-07-08 13:02:00,
2013-07-08 09:07:00,72.3,62.8,30.06,South,180,0.0,0.0,72,0.00,,,0.00,meteohub,2013-07-08 13:07:00,
2013-07-08 09:12:00,72.5,62.6,30.06,South,180,0.0,0.0,71,0.00,,,0.00,meteohub,2013-07-08 13:12:00,
2013-07-08 09:17:00,72.5,62.6,30.06,SSW,202,0.0,0.0,71,0.00,,,0.00,meteohub,2013-07-08 13:17:00,
2013-07-08 09:22:00,72.7,63.1,30.06,SSE,158,0.0,0.0,72,0.00,,,0.00,meteohub,2013-07-08 13:22:00,
2013-07-08 09:27:00,72.7,62.4,30.06,SSW,202,0.0,0.0,70,0.00,,,0.00,meteohub,2013-07-08 13:27:00,
2013-07-08 09:32:00,72.9,63.0,30.06,SSW,202,0.0,0.0,71,0.00,,,0.00,meteohub,2013-07-08 13:32:00,
2013-07-08 09:37:00,73.2,63.3,30.06,SSE,158,0.0,0.0,71,0.00,,,0.00,meteohub,2013-07-08 13:37:00,
2013-07-08 09:42:00,73.8,63.7,30.06,ESE,112,0.0,0.0,71,0.00,,,0.00,meteohub,2013-07-08 13:42:00,
2013-07-08 09:48:00,74.3,64.8,30.06,SE,135,0.0,0.0,72,0.00,,,0.00,meteohub,2013-07-08 13:48:00,
2013-07-08 09:53:00,74.7,65.1,30.03,SE,135,0.0,0.0,72,0.00,,,0.00,meteohub,2013-07-08 13:53:00,
2013-07-08 09:58:00,75.4,65.3,30.03,SSE,158,0.0,0.0,71,0.00,,,0.00,meteohub,2013-07-08 13:58:00,
2013-07-08 10:03:00,75.9,65.5,30.03,SSE,158,0.0,0.0,70,0.00,,,0.00,meteohub,2013-07-08 14:03:00,
2013-07-08 10:08:00,76.6,66.2,30.03,SSE,158,0.0,2.0,70,0.00,,,0.00,meteohub,2013-07-08 14:08:00,
2013-07-08 10:13:00,77.2,65.8,30.03,WSW,248,0.0,2.0,68,0.00,,,0.00,meteohub,2013-07-08 14:13:00,
2013-07-08 10:18:00,77.5,62.1,30.03,SW,225,2.0,2.0,59,0.00,,,0.00,meteohub,2013-07-08 14:18:00,
2013-07-08 10:23:00,77.4,54.3,30.03,WSW,248,4.0,4.0,45,0.00,,,0.00,meteohub,2013-07-08 14:23:00,
2013-07-08 10:28:00,77.5,55.8,30.03,SSW,202,0.0,4.0,47,0.00,,,0.00,meteohub,2013-07-08 14:28:00,
2013-07-08 10:33:00,77.5,55.8,30.03,SW,225,2.0,4.0,47,0.00,,,0.00,meteohub,2013-07-08 14:33:00,
2013-07-08 10:38:00,77.9,56.1,30.03,SW,225,1.0,4.0,47,0.00,,,0.00,meteohub,2013-07-08 14:38:00,
2013-07-08 10:43:00,77.9,54.9,30.03,SSW,202,0.0,2.0,45,0.00,,,0.00,meteohub,2013-07-08 14:43:00,
2013-07-08 10:49:00,78.6,57.4,30.03,SSW,202,0.0,4.0,48,0.00,,,0.00,meteohub,2013-07-08 14:49:00,
2013-07-08 10:54:00,78.8,55.0,30.03,SSW,202,0.0,4.0,44,0.00,,,0.00,meteohub,2013-07-08 14:54:00,
2013-07-08 10:59:00,79.5,55.8,30.03,SSE,158,0.0,4.0,44,0.00,,,0.00,meteohub,2013-07-08 14:59:00,
2013-07-08 11:04:00,80.8,57.4,30.03,WSW,248,0.0,3.0,45,0.00,,,0.00,meteohub,2013-07-08 15:04:00,
2013-07-08 11:09:00,81.5,56.1,30.00,WSW,248,0.0,3.0,42,0.00,,,0.00,meteohub,2013-07-08 15:09:00,
2013-07-08 11:14:00,81.9,55.2,30.00,WSW,248,0.0,3.0,40,0.00,,,0.00,meteohub,2013-07-08 15:14:00,
2013-07-08 11:19:00,82.2,53.4,30.00,SSE,158,0.0,3.0,37,0.00,,,0.00,meteohub,2013-07-08 15:19:00,
2013-07-08 11:24:00,82.9,53.2,30.03,SSE,158,2.0,2.0,36,0.00,,,0.00,meteohub,2013-07-08 15:24:00,
2013-07-08 11:29:00,83.3,51.3,30.03,SW,225,2.0,3.0,33,0.00,,,0.00,meteohub,2013-07-08 15:29:00,
2013-07-08 11:34:00,83.7,54.0,30.03,NE,45,0.0,3.0,36,0.00,,,0.00,meteohub,2013-07-08 15:34:00,
2013-07-08 11:39:00,83.8,52.5,30.03,ESE,112,0.0,3.0,34,0.00,,,0.00,meteohub,2013-07-08 15:39:00,
2013-07-08 11:45:00,84.0,51.8,30.03,ESE,112,0.0,3.0,33,0.00,,,0.00,meteohub,2013-07-08 15:45:00,
2013-07-08 11:50:00,84.4,52.2,30.03,ESE,112,0.0,3.0,33,0.00,,,0.00,meteohub,2013-07-08 15:50:00,
2013-07-08 11:55:00,84.4,51.3,30.03,SSW,202,2.0,3.0,32,0.00,,,0.00,meteohub,2013-07-08 15:55:00,
2013-07-08 12:00:00,84.0,49.3,30.03,SW,225,0.0,2.0,30,0.00,,,0.00,meteohub,2013-07-08 16:00:00,
2013-07-08 12:05:00,84.2,50.4,30.03,SW,225,2.0,3.0,31,0.00,,,0.00,meteohub,2013-07-08 16:05:00,
2013-07-08 12:10:00,84.2,51.1,30.03,SSW,202,0.0,3.0,32,0.00,,,0.00,meteohub,2013-07-08 16:10:00,
2013-07-08 12:15:00,84.2,50.4,30.03,WSW,248,0.0,3.0,31,0.00,,,0.00,meteohub,2013-07-08 16:15:00,
2013-07-08 12:20:00,83.5,48.7,30.03,ENE,68,2.0,3.0,30,0.00,,,0.00,meteohub,2013-07-08 16:20:00,
2013-07-08 12:25:00,83.7,50.7,30.03,ESE,112,0.0,3.0,32,0.00,,,0.00,meteohub,2013-07-08 16:25:00,
2013-07-08 12:30:00,83.7,50.7,30.03,SSW,202,0.0,4.0,32,0.00,,,0.00,meteohub,2013-07-08 16:30:00,
2013-07-08 12:35:00,83.7,49.8,30.03,SW,225,2.0,4.0,31,0.00,,,0.00,meteohub,2013-07-08 16:35:00,
2013-07-08 12:40:00,83.5,49.6,30.03,WSW,248,0.0,3.0,31,0.00,,,0.00,meteohub,2013-07-08 16:40:00,
2013-07-08 12:46:00,83.7,49.8,30.03,ESE,112,0.0,3.0,31,0.00,,,0.00,meteohub,2013-07-08 16:46:00,
2013-07-08 12:51:00,83.5,49.6,30.03,South,180,2.0,4.0,31,0.00,,,0.00,meteohub,2013-07-08 16:51:00,
2013-07-08 12:56:00,83.5,49.6,30.03,SSW,202,0.0,4.0,31,0.00,,,0.00,meteohub,2013-07-08 16:56:00,
2013-07-08 13:02:00,83.3,50.4,30.03,SSW,202,1.0,4.0,32,0.00,,,0.00,meteohub,2013-07-08 17:02:00,
2013-07-08 13:07:00,83.3,50.4,30.03,SSW,202,0.0,4.0,32,0.00,,,0.00,meteohub,2013-07-08 17:07:00,
2013-07-08 13:12:00,82.9,49.3,30.03,SSW,202,1.0,4.0,31,0.00,,,0.00,meteohub,2013-07-08 17:12:00,
2013-07-08 13:17:00,82.9,49.3,30.03,SSW,202,3.0,4.0,31,0.00,,,0.00,meteohub,2013-07-08 17:17:00,
2013-07-08 13:22:00,83.5,51.4,30.03,SSE,158,2.0,4.0,33,0.00,,,0.00,meteohub,2013-07-08 17:22:00,
2013-07-08 13:27:00,84.0,51.8,30.03,ESE,112,1.0,4.0,33,0.00,,,0.00,meteohub,2013-07-08 17:27:00,
2013-07-08 13:32:00,84.0,51.8,30.03,SE,135,0.0,4.0,33,0.00,,,0.00,meteohub,2013-07-08 17:32:00,
2013-07-08 13:37:00,84.0,51.1,29.97,SE,135,3.0,5.0,32,0.00,,,0.00,meteohub,2013-07-08 17:37:00,
2013-07-08 13:42:00,83.7,50.7,29.97,ESE,112,1.0,5.0,32,0.00,,,0.00,meteohub,2013-07-08 17:42:00,
2013-07-08 13:47:00,83.5,50.5,29.97,SE,135,0.0,5.0,32,0.00,,,0.00,meteohub,2013-07-08 17:47:00,
2013-07-08 13:52:00,82.9,51.6,30.00,ESE,112,1.0,5.0,34,0.00,,,0.00,meteohub,2013-07-08 17:52:00,
2013-07-08 13:57:00,82.4,51.3,30.00,South,180,4.0,5.0,34,0.00,,,0.00,meteohub,2013-07-08 17:57:00,
2013-07-08 14:02:00,81.1,47.7,30.00,ESE,112,3.0,5.0,31,0.00,,,0.00,meteohub,2013-07-08 18:02:00,
2013-07-08 14:07:00,79.3,46.9,29.97,SSW,202,0.0,5.0,32,0.00,,,0.00,meteohub,2013-07-08 18:07:00,
2013-07-08 14:12:00,78.6,47.8,29.97,SSE,158,1.0,5.0,34,0.00,,,0.00,meteohub,2013-07-08 18:12:00,
2013-07-08 14:17:00,78.1,48.9,29.97,SE,135,0.0,4.0,36,0.00,,,0.00,meteohub,2013-07-08 18:17:00,
2013-07-08 14:22:00,77.9,48.7,29.97,SE,135,0.0,2.0,36,0.00,,,0.00,meteohub,2013-07-08 18:22:00,
2013-07-08 14:27:00,77.5,50.7,30.00,East,90,0.0,2.0,39,0.00,,,0.00,meteohub,2013-07-08 18:27:00,
2013-07-08 14:32:00,77.5,55.2,30.00,SSE,158,2.0,0.0,46,0.00,,,0.00,meteohub,2013-07-08 18:32:00,
2013-07-08 14:38:00,77.2,54.1,30.00,SE,135,0.0,2.0,45,0.00,,,0.00,meteohub,2013-07-08 18:38:00,
2013-07-08 14:43:00,76.8,54.0,30.00,SE,135,0.0,2.0,45,0.00,,,0.00,meteohub,2013-07-08 18:43:00,
2013-07-08 14:48:00,76.5,53.6,30.00,SE,135,0.0,2.0,45,0.00,,,0.00,meteohub,2013-07-08 18:48:00,
2013-07-08 14:53:00,76.5,53.6,30.00,SE,135,0.0,0.0,45,0.00,,,0.00,meteohub,2013-07-08 18:53:00,
2013-07-08 14:59:00,77.0,57.0,30.00,SE,135,0.0,0.0,50,0.00,,,0.00,meteohub,2013-07-08 18:59:00,
2013-07-08 15:05:00,77.2,58.3,30.00,SE,135,0.0,0.0,52,0.00,,,0.00,meteohub,2013-07-08 19:05:00,
2013-07-08 15:11:00,78.1,59.0,30.00,SSE,158,0.0,0.0,52,0.00,,,0.00,meteohub,2013-07-08 19:11:00,
2013-07-08 15:17:00,79.0,59.9,30.00,South,180,0.0,0.0,52,0.00,,,0.00,meteohub,2013-07-08 19:17:00,
2013-07-08 15:22:00,80.4,60.1,29.97,WSW,248,0.0,0.0,50,0.00,,,0.00,meteohub,2013-07-08 19:22:00,
2013-07-08 15:27:00,81.7,58.3,29.97,WSW,248,2.0,0.0,45,0.00,,,0.00,meteohub,2013-07-08 19:27:00,
2013-07-08 15:32:00,82.0,50.2,29.97,SW,225,4.0,4.0,33,0.00,,,0.00,meteohub,2013-07-08 19:32:00,
2013-07-08 15:38:00,81.9,47.5,29.97,WSW,248,5.0,6.0,30,0.00,,,0.00,meteohub,2013-07-08 19:38:00,
2013-07-08 15:43:00,81.9,46.6,29.97,South,180,9.0,11.0,29,0.00,,,0.00,meteohub,2013-07-08 19:43:00,
2013-07-08 15:49:00,81.5,47.1,29.97,WSW,248,11.0,11.0,30,0.00,,,0.00,meteohub,2013-07-08 19:49:00,
2013-07-08 15:54:00,79.9,41.0,29.97,WNW,292,11.0,11.0,25,0.00,,,0.00,meteohub,2013-07-08 19:54:00,
2013-07-08 15:59:00,79.2,45.1,29.97,WSW,248,7.0,23.0,30,0.00,,,0.00,meteohub,2013-07-08 19:59:00,
2013-07-08 16:05:00,78.8,46.4,29.97,WSW,248,9.0,23.0,32,0.00,,,0.00,meteohub,2013-07-08 20:05:00,
2013-07-08 16:10:00,78.3,47.7,30.00,WSW,248,7.0,12.0,34,0.00,,,0.00,meteohub,2013-07-08 20:10:00,
2013-07-08 16:15:00,78.4,51.4,30.00,WSW,248,6.0,12.0,39,0.00,,,0.00,meteohub,2013-07-08 20:15:00,
2013-07-08 16:20:00,78.4,52.2,30.00,West,270,6.0,9.0,40,0.00,,,0.00,meteohub,2013-07-08 20:20:00,
2013-07-08 16:26:00,78.6,52.9,30.00,WSW,248,6.0,9.0,41,0.00,,,0.00,meteohub,2013-07-08 20:26:00,
2013-07-08 16:31:00,78.4,52.2,30.00,WNW,292,10.0,10.0,40,0.00,,,0.00,meteohub,2013-07-08 20:31:00,
2013-07-08 16:37:00,78.1,46.6,30.00,WNW,292,11.0,15.0,33,0.00,,,0.00,meteohub,2013-07-08 20:37:00,
2013-07-08 16:42:00,77.4,47.7,30.00,West,270,6.0,17.0,35,0.00,,,0.00,meteohub,2013-07-08 20:42:00,
2013-07-08 16:47:00,77.0,48.0,30.00,WSW,248,5.0,17.0,36,0.00,,,0.00,meteohub,2013-07-08 20:47:00,
2013-07-08 16:53:00,77.0,48.7,30.00,WSW,248,5.0,13.0,37,0.00,,,0.00,meteohub,2013-07-08 20:53:00,
2013-07-08 16:58:00,76.8,49.3,30.00,SSW,202,4.0,8.0,38,0.00,,,0.00,meteohub,2013-07-08 20:58:00,
2013-07-08 17:03:00,77.0,49.5,30.00,WNW,292,6.0,8.0,38,0.00,,,0.00,meteohub,2013-07-08 21:03:00,
2013-07-08 17:08:00,77.0,50.2,30.03,WSW,248,5.0,8.0,39,0.00,,,0.00,meteohub,2013-07-08 21:08:00,
2013-07-08 17:14:00,77.0,50.9,30.03,WSW,248,3.0,6.0,40,0.00,,,0.00,meteohub,2013-07-08 21:14:00,
2013-07-08 17:19:00,77.0,45.7,30.03,WSW,248,9.0,9.0,33,0.00,,,0.00,meteohub,2013-07-08 21:19:00,
2013-07-08 17:24:00,77.4,46.0,30.03,SW,225,4.0,6.0,33,0.00,,,0.00,meteohub,2013-07-08 21:24:00,
2013-07-08 17:30:00,77.4,43.5,30.03,SW,225,3.0,9.0,30,0.00,,,0.00,meteohub,2013-07-08 21:30:00,
2013-07-08 17:36:00,77.5,43.7,30.03,West,270,5.0,8.0,30,0.00,,,0.00,meteohub,2013-07-08 21:36:00,
2013-07-08 17:41:00,77.9,44.8,30.00,SW,225,0.0,8.0,31,0.00,,,0.00,meteohub,2013-07-08 21:41:00,
2013-07-08 17:46:00,78.1,45.0,30.00,SW,225,0.0,6.0,31,0.00,,,0.00,meteohub,2013-07-08 21:46:00,
2013-07-08 17:52:00,78.1,44.1,30.00,SSW,202,4.0,5.0,30,0.00,,,0.00,meteohub,2013-07-08 21:52:00,
2013-07-08 17:57:00,77.9,43.2,30.00,SSW,202,0.0,5.0,29,0.00,,,0.00,meteohub,2013-07-08 21:57:00,
2013-07-08 18:02:00,77.7,43.9,30.00,SSW,202,0.0,5.0,30,0.00,,,0.00,meteohub,2013-07-08 22:02:00,
2013-07-08 18:07:00,77.9,45.7,30.00,SSE,158,0.0,5.0,32,0.00,,,0.00,meteohub,2013-07-08 22:07:00,
2013-07-08 18:12:00,77.7,45.5,30.00,SSE,158,0.0,2.0,32,0.00,,,0.00,meteohub,2013-07-08 22:12:00,
2013-07-08 18:17:00,77.0,45.7,30.00,SSE,158,0.0,0.0,33,0.00,,,0.00,meteohub,2013-07-08 22:17:00,
2013-07-08 18:23:00,76.6,46.2,30.00,SSE,158,0.0,0.0,34,0.00,,,0.00,meteohub,2013-07-08 22:23:00,
2013-07-08 18:29:00,76.5,47.5,30.00,SSE,158,0.0,0.0,36,0.00,,,0.00,meteohub,2013-07-08 22:29:00,
2013-07-08 18:34:00,76.5,48.2,30.00,SSE,158,0.0,0.0,37,0.00,,,0.00,meteohub,2013-07-08 22:34:00,
2013-07-08 18:40:00,76.3,50.2,30.00,SSE,158,0.0,0.0,40,0.00,,,0.00,meteohub,2013-07-08 22:40:00,
2013-07-08 18:46:00,76.3,50.2,30.00,SSE,158,0.0,0.0,40,0.00,,,0.00,meteohub,2013-07-08 22:46:00,
2013-07-08 18:51:00,76.1,50.0,30.00,East,90,0.0,0.0,40,0.00,,,0.00,meteohub,2013-07-08 22:51:00,
2013-07-08 18:57:00,76.1,49.3,30.00,ESE,112,0.0,0.0,39,0.00,,,0.00,meteohub,2013-07-08 22:57:00,
2013-07-08 19:02:00,76.1,48.7,30.00,WSW,248,0.0,0.0,38,0.00,,,0.00,meteohub,2013-07-08 23:02:00,
2013-07-08 19:07:00,76.1,45.7,30.00,SSW,202,0.0,0.0,34,0.00,,,0.00,meteohub,2013-07-08 23:07:00,
2013-07-08 19:12:00,76.3,46.6,30.00,SW,225,0.0,0.0,35,0.00,,,0.00,meteohub,2013-07-08 23:12:00,
2013-07-08 19:18:00,76.6,43.7,30.00,SW,225,2.0,0.0,31,0.00,,,0.00,meteohub,2013-07-08 23:18:00,
2013-07-08 19:23:00,77.0,44.1,30.00,SW,225,2.0,5.0,31,0.00,,,0.00,meteohub,2013-07-08 23:23:00,
2013-07-08 19:29:00,77.2,44.2,30.00,WSW,248,3.0,5.0,31,0.00,,,0.00,meteohub,2013-07-08 23:29:00,
2013-07-08 19:34:00,77.4,44.4,30.00,WSW,248,3.0,3.0,31,0.00,,,0.00,meteohub,2013-07-08 23:34:00,
2013-07-08 19:39:00,77.4,43.5,30.03,SSW,202,2.0,3.0,30,0.00,,,0.00,meteohub,2013-07-08 23:39:00,
2013-07-08 19:45:00,77.4,43.5,30.03,SSW,202,0.0,3.0,30,0.00,,,0.00,meteohub,2013-07-08 23:45:00,
2013-07-08 19:52:00,77.4,44.4,30.03,SSW,202,0.0,3.0,31,0.00,,,0.00,meteohub,2013-07-08 23:52:00,
2013-07-08 19:57:00,77.4,44.4,30.03,SSW,202,1.0,3.0,31,0.00,,,0.00,meteohub,2013-07-08 23:57:00,
2013-07-08 20:02:00,77.4,45.1,30.03,SSW,202,2.0,3.0,32,0.00,,,0.00,meteohub,2013-07-09 00:02:00,
2013-07-08 20:07:00,77.2,44.2,30.03,SSW,202,0.0,2.0,31,0.00,,,0.00,meteohub,2013-07-09 00:07:00,
2013-07-08 20:12:00,77.2,44.2,30.03,SSW,202,0.0,3.0,31,0.00,,,0.00,meteohub,2013-07-09 00:12:00,
2013-07-08 20:17:00,77.2,45.1,30.03,WSW,248,6.0,6.0,32,0.00,,,0.00,meteohub,2013-07-09 00:17:00,
2013-07-08 20:23:00,77.0,45.0,30.03,WSW,248,5.0,9.0,32,0.00,,,0.00,meteohub,2013-07-09 00:23:00,
2013-07-08 20:29:00,77.0,45.7,30.03,WSW,248,4.0,9.0,33,0.00,,,0.00,meteohub,2013-07-09 00:29:00,
2013-07-08 20:35:00,76.8,45.5,30.03,WSW,248,3.0,9.0,33,0.00,,,0.00,meteohub,2013-07-09 00:35:00,
2013-07-08 20:40:00,76.8,46.4,30.03,SW,225,3.0,6.0,34,0.00,,,0.00,meteohub,2013-07-09 00:40:00,
2013-07-08 20:45:00,76.6,45.3,30.03,SW,225,2.0,6.0,33,0.00,,,0.00,meteohub,2013-07-09 00:45:00,
2013-07-08 20:51:00,76.6,46.2,30.03,SW,225,2.0,5.0,34,0.00,,,0.00,meteohub,2013-07-09 00:51:00,
2013-07-08 20:56:00,76.6,45.3,30.03,SSW,202,0.0,4.0,33,0.00,,,0.00,meteohub,2013-07-09 00:56:00,
2013-07-08 21:01:00,76.5,45.3,30.03,South,180,0.0,4.0,33,0.00,,,0.00,meteohub,2013-07-09 01:01:00,
2013-07-08 21:06:00,76.5,45.3,30.03,SW,225,4.0,4.0,33,0.00,,,0.00,meteohub,2013-07-09 01:06:00,
2013-07-08 21:11:00,76.5,45.3,30.00,SSW,202,0.0,4.0,33,0.00,,,0.00,meteohub,2013-07-09 01:11:00,
2013-07-08 21:17:00,76.3,45.1,30.00,SW,225,0.0,4.0,33,0.00,,,0.00,meteohub,2013-07-09 01:17:00,
2013-07-08 21:22:00,76.3,45.9,30.03,SSW,202,0.0,4.0,34,0.00,,,0.00,meteohub,2013-07-09 01:22:00,
2013-07-08 21:28:00,76.1,45.7,30.03,SW,225,0.0,0.0,34,0.00,,,0.00,meteohub,2013-07-09 01:28:00,
2013-07-08 21:33:00,76.1,46.4,30.03,SSE,158,0.0,0.0,35,0.00,,,0.00,meteohub,2013-07-09 01:33:00,
2013-07-08 21:38:00,75.9,45.5,30.03,SSE,158,0.0,0.0,34,0.00,,,0.00,meteohub,2013-07-09 01:38:00,
2013-07-08 21:44:00,75.6,46.0,30.03,South,180,0.0,0.0,35,0.00,,,0.00,meteohub,2013-07-09 01:44:00,
2013-07-08 21:49:00,75.6,46.8,30.03,SSW,202,0.0,0.0,36,0.00,,,0.00,meteohub,2013-07-09 01:49:00,
2013-07-08 21:55:00,75.6,46.8,30.03,SSW,202,0.0,0.0,36,0.00,,,0.00,meteohub,2013-07-09 01:55:00,
2013-07-08 22:00:00,75.4,46.6,30.03,SSW,202,0.0,0.0,36,0.00,,,0.00,meteohub,2013-07-09 02:00:00,
2013-07-08 22:06:00,75.4,46.6,30.03,SSW,202,0.0,0.0,36,0.00,,,0.00,meteohub,2013-07-09 02:06:00,
2013-07-08 22:12:00,75.4,46.6,30.00,WSW,248,2.0,2.0,36,0.00,,,0.00,meteohub,2013-07-09 02:12:00,
2013-07-08 22:17:00,75.6,47.5,30.00,SW,225,0.0,2.0,37,0.00,,,0.00,meteohub,2013-07-09 02:17:00,
2013-07-08 22:22:00,75.4,46.6,30.03,SSW,202,0.0,2.0,36,0.00,,,0.00,meteohub,2013-07-09 02:22:00,
2013-07-08 22:27:00,75.4,47.3,30.03,SSW,202,0.0,2.0,37,0.00,,,0.00,meteohub,2013-07-09 02:27:00,
2013-07-08 22:32:00,75.4,46.6,30.03,SSW,202,0.0,0.0,36,0.00,,,0.00,meteohub,2013-07-09 02:32:00,
2013-07-08 22:38:00,75.2,46.4,30.03,SSW,202,0.0,0.0,36,0.00,,,0.00,meteohub,2013-07-09 02:38:00,
2013-07-08 22:43:00,75.0,46.9,30.03,SSE,158,0.0,0.0,37,0.00,,,0.00,meteohub,2013-07-09 02:43:00,
2013-07-08 22:48:00,74.8,46.8,30.03,SSE,158,0.0,0.0,37,0.00,,,0.00,meteohub,2013-07-09 02:48:00,
2013-07-08 22:54:00,74.8,47.5,30.03,SSE,158,0.0,0.0,38,0.00,,,0.00,meteohub,2013-07-09 02:54:00,
2013-07-08 22:59:00,74.7,47.3,30.03,SSE,158,0.0,0.0,38,0.00,,,0.00,meteohub,2013-07-09 02:59:00,
2013-07-08 23:04:00,74.5,48.6,30.03,SSE,158,0.0,0.0,40,0.00,,,0.00,meteohub,2013-07-09 03:04:00,
2013-07-08 23:10:00,74.3,49.1,30.03,SSE,158,0.0,0.0,41,0.00,,,0.00,meteohub,2013-07-09 03:10:00,
2013-07-08 23:16:00,74.3,49.8,30.03,SSE,158,0.0,0.0,42,0.00,,,0.00,meteohub,2013-07-09 03:16:00,
2013-07-08 23:21:00,74.1,49.6,30.03,SSE,158,0.0,0.0,42,0.00,,,0.00,meteohub,2013-07-09 03:21:00,
2013-07-08 23:27:00,73.9,49.5,30.03,SSE,158,0.0,0.0,42,0.00,,,0.00,meteohub,2013-07-09 03:27:00,
2013-07-08 23:32:00,73.9,50.0,30.03,SSE,158,0.0,0.0,43,0.00,,,0.00,meteohub,2013-07-09 03:32:00,
2013-07-08 23:37:00,73.6,49.6,30.03,SSE,158,0.0,0.0,43,0.00,,,0.00,meteohub,2013-07-09 03:37:00,
2013-07-08 23:42:00,73.6,50.4,30.03,SSE,158,0.0,0.0,44,0.00,,,0.00,meteohub,2013-07-09 03:42:00,
2013-07-08 23:47:00,73.4,50.2,30.03,SSE,158,0.0,0.0,44,0.00,,,0.00,meteohub,2013-07-09 03:47:00,
2013-07-08 23:53:00,73.2,51.3,30.03,SSE,158,0.0,0.0,46,0.00,,,0.00,meteohub,2013-07-09 03:53:00,